• Join FlightAware (Why Join?)
  • Login
  • US Flag 
08:34AM EDT


 

Airport Tracker/Info


-or-


 

Live Flight TrackerFlight Track Log ✈ MAS2743 ✈ 31-Oct-2013 ✈ WBGB / BTU - WMKK / KUL

Flight Track Log - Related Links

Times and Time Zones

All times are in EDT time to prevent confusion due to time zone crossing. See the MAS2743 flight status page for this flight to view local times or setup timezone preferences in your user account.

Time Position Orientation Groundspeed Altitude Reporting Facility
EDT Latitude Longitude Course Direction KTS MPH feet Rate Location/Type
02:18AM 2.9390 111.4780 262° West 457 526 28,200  Level FlightAware
02:19AM 2.9310 111.4200 262° West 458 527 28,800 480 Climbing FlightAware
02:19AM 2.9190 111.3490 260° West 458 527 28,800 1,320 Level FlightAware
02:20AM 2.9050 111.2400 263° West 463 533 30,700 1,380 Climbing FlightAware
02:21AM 2.8960 111.1720 262° West 463 533 30,700 1,260 Level FlightAware
02:22AM 2.8780 111.0410 262° West 465 535 32,700 1,680 Climbing FlightAware
02:22AM 2.8630 110.9400 262° West 465 535 33,600 1,200 Climbing FlightAware
02:23AM 2.8540 110.8710 263° West 465 535 34,300 1,200 Climbing FlightAware
02:24AM 2.8440 110.8020 262° West 465 535 34,900 1,020 Climbing FlightAware
02:24AM 2.8330 110.7230 262° West 466 536 35,500 900 Climbing FlightAware
02:25AM 2.8230 110.6530 262° West 466 536 36,000 960 Climbing FlightAware
02:25AM 2.8120 110.5740 262° West 464 534 36,700 1,020 Climbing FlightAware
02:26AM 2.8010 110.4990 262° West 462 532 37,300 900 Climbing FlightAware
02:27AM 2.7910 110.4230 262° West 461 531 37,800 420 Climbing FlightAware
02:27AM 2.7740 110.3080 262° West 460 529 38,000 120 Climbing FlightAware
02:28AM 2.7650 110.2410 262° West 460 529 38,000  Level FlightAware
02:29AM 2.7550 110.1700 262° West 459 528 38,000  Level FlightAware
02:29AM 2.7400 110.0660 262° West 457 526 38,000  Level FlightAware
02:30AM 2.7300 109.9960 262° West 458 527 38,000  Level FlightAware
02:31AM 2.7190 109.9200 262° West 458 527 38,000  Level FlightAware
02:31AM 2.7100 109.8530 262° West 458 527 38,000  Level FlightAware
02:32AM 2.6930 109.7350 262° West 459 528 38,000  Level FlightAware
02:33AM 2.6840 109.6680 262° West 460 529 38,000  Level FlightAware
02:34AM 2.6660 109.5420 262° West 462 532 38,000  Level FlightAware
02:34AM 2.6540 109.4570 262° West 462 532 38,000  Level FlightAware
02:35AM 2.6390 109.3500 262° West 463 533 38,000  Level FlightAware
02:36AM 2.6290 109.2840 261° West 463 533 38,000  Level FlightAware
02:36AM 2.6190 109.2150 262° West 463 533 38,000  Level FlightAware
02:37AM 2.6080 109.1390 262° West 462 532 38,000  Level FlightAware
02:38AM 2.5900 109.0080 262° West 460 529 38,000  Level FlightAware
02:38AM 2.5790 108.9410 261° West 459 528 38,000  Level FlightAware
02:39AM 2.5590 108.8770 253° West 459 528 38,000  Level FlightAware
02:39AM 2.5400 108.8280 249° West 458 527 38,000  Level FlightAware
02:40AM 2.5140 108.7610 249° West 458 527 38,000  Level FlightAware
02:41AM 2.4710 108.6470 249° West 459 528 38,000  Level FlightAware
02:41AM 2.4480 108.5880 249° West 459 528 38,000  Level FlightAware
02:42AM 2.4210 108.5200 248° West 458 527 38,000  Level FlightAware
02:43AM 2.3760 108.4010 249° West 457 526 38,000  Level FlightAware
02:43AM 2.3470 108.3270 249° West 457 526 38,000  Level FlightAware
02:44AM 2.3270 108.2750 249° West 457 526 38,000  Level FlightAware
02:45AM 2.2890 108.1770 249° West 457 526 38,000  Level FlightAware
02:45AM 2.2640 108.1120 249° West 458 527 38,000  Level FlightAware
02:45AM 2.2610 108.1040 249° West 458 527 38,000  Level FlightAware
02:47AM 2.2100 107.9770 248° West 458 527 38,000  Level FlightAware
02:47AM 2.1860 107.9160 249° West 458 527 38,000  Level FlightAware
02:48AM 2.1610 107.8560 247° West 458 527 38,000  Level FlightAware
02:48AM 2.1940 107.7290 285° West 463 533 38,000  Level FlightAware
02:49AM 2.2080 107.6760 285° West 463 533 38,000  Level FlightAware
02:50AM 2.2360 107.5710 285° West 463 533 38,000  Level FlightAware
02:50AM 2.2480 107.5290 286° West 463 533 38,000  Level FlightAware
02:51AM 2.2710 107.4420 285° West 463 533 38,000  Level FlightAware
02:52AM 2.2880 107.3770 285° West 463 533 38,000  Level FlightAware
02:52AM 2.3050 107.3140 285° West 463 533 38,000  Level FlightAware
02:53AM 2.3220 107.2510 285° West 463 533 38,000  Level FlightAware
02:54AM 2.3390 107.1870 285° West 463 533 38,000  Level FlightAware
02:54AM 2.3980 106.9910 287° West 464 534 38,000  Level FlightAware
02:55AM 2.4150 106.9280 285° West 463 533 38,000  Level FlightAware
02:55AM 2.4320 106.8650 285° West 463 533 38,000  Level FlightAware
02:56AM 2.4610 106.7590 285° West 463 533 38,000  Level FlightAware
02:57AM 2.4880 106.6660 286° West 462 532 38,000  Level FlightAware
02:58AM 2.5070 106.5970 285° West 462 532 38,000  Level FlightAware
02:58AM 2.5370 106.4880 285° West 461 531 38,000  Level FlightAware
03:00AM 2.5760 106.3500 286° West 458 527 38,000  Level FlightAware
03:00AM 2.6010 106.2580 285° West 457 526 38,000  Level FlightAware
03:01AM 2.6360 106.1290 285° West 454 522 38,000  Level FlightAware
03:02AM 2.6590 106.0460 286° West 453 521 38,000  Level FlightAware
03:03AM 2.6760 105.9860 286° West 452 520 38,000  Level FlightAware
03:03AM 2.6920 105.9270 285° West 450 518 38,000  Level FlightAware
03:04AM 2.7080 105.8690 285° West 449 517 38,000  Level FlightAware
03:04AM 2.7310 105.7870 286° West 449 517 38,000  Level FlightAware
03:05AM 2.7540 105.7040 286° West 449 517 38,000  Level FlightAware
03:05AM 2.7720 105.6390 285° West 449 517 38,000  Level FlightAware
03:06AM 2.7900 105.5740 285° West 451 519 38,000  Level FlightAware
03:07AM 2.8250 105.4470 285° West 452 520 38,000  Level FlightAware
03:08AM 2.8440 105.3780 285° West 452 520 38,000  Level FlightAware
03:08AM 2.8640 105.3040 285° West 453 521 38,000  Level FlightAware
03:08AM 2.8710 105.2790 286° West 453 521 38,000  Level FlightAware
03:10AM 2.9110 105.1320 285° West 455 524 38,000  Level FlightAware
03:11AM 2.9470 105.0030 286° West 456 525 38,000  Level FlightAware
03:12AM 2.9730 104.9050 285° West 456 525 38,000  Level FlightAware
03:12AM 2.9900 104.8420 285° West 456 525 38,000  Level FlightAware
03:13AM 3.0170 104.7480 286° West 456 525 38,000  Level FlightAware
03:13AM 3.0380 104.6740 286° West 456 525 38,000  Level FlightAware
03:14AM 3.0540 104.6170 286° West 457 526 38,000  Level FlightAware
03:14AM 3.0740 104.5440 285° West 456 525 38,000  Level FlightAware
03:15AM 3.0920 104.4780 285° West 457 526 38,000  Level FlightAware
03:16AM 3.1140 104.3970 285° West 457 526 38,000  Level FlightAware
03:16AM 3.1350 104.3110 284° West 457 526 38,000  Level FlightAware
03:17AM 3.1270 104.2390 264° West 456 525 38,000  Level FlightAware
03:18AM 3.1320 104.1080 272° West 456 525 38,000  Level FlightAware
03:19AM 3.1350 104.0200 272° West 457 526 38,000  Level FlightAware
03:20AM 3.1400 103.8980 272° West 457 526 38,000  Level FlightAware
03:20AM 3.1440 103.8020 272° West 457 526 38,000  Level FlightAware
03:21AM 3.1460 103.7460 272° West 455 524 38,000 -420 Level FlightAware
03:21AM 3.1490 103.6750 272° West 429 494 37,600 -1,380 Descending FlightAware
03:22AM 3.1520 103.5990 272° West 426 490 36,400 -1,620 Descending FlightAware
03:22AM 3.1540 103.5530 272° West 425 489 36,000 -1,020 Descending FlightAware
03:23AM 3.1420 103.4310 264° West 430 495 35,000 -1,020 Descending FlightAware
03:24AM 3.1350 103.3740 263° West 423 487 34,500 -1,140 Descending FlightAware
03:24AM 3.1270 103.3140 262° West 414 476 33,900 -1,140 Descending FlightAware
03:25AM 3.1200 103.2600 263° West 405 466 33,400 -1,020 Descending FlightAware
03:26AM 3.1020 103.1310 262° West 401 461 32,200 -1,080 Descending FlightAware
03:27AM 3.0860 103.0100 262° West 395 455 31,100 -1,020 Descending FlightAware
03:28AM 3.0800 102.9640 263° West 392 451 30,700 -1,200 Descending FlightAware
03:28AM 3.0710 102.8980 262° West 389 448 29,800 -1,680 Descending FlightAware
03:29AM 3.0620 102.8310 262° West 389 448 28,600 -2,040 Descending FlightAware
03:30AM 3.0530 102.7650 262° West 388 447 27,300 -1,980 Descending FlightAware
03:30AM 3.0430 102.6900 262° West 386 444 26,000 -1,620 Descending FlightAware
03:31AM 3.0280 102.5770 262° West 359 413 24,500 -1,440 Descending FlightAware
03:32AM 3.0210 102.5290 262° West 350 403 23,700 -1,680 Descending FlightAware
03:32AM 3.0168 102.4965 263° West 427 491 23,100 -1,680 Descending FlightAware ADS-B (WMSA / SZB)
03:32AM 3.0091 102.4773 248° West 344 396 22,800 -1,740 Descending FlightAware ADS-B (WMSA / SZB)
03:32AM 3.0016 102.4675 233° Southwest 342 394 22,500 -1,920 Descending FlightAware ADS-B (WMSA / SZB)
03:33AM 2.9872 102.4559 219° Southwest 339 390 22,200 -1,020 Descending FlightAware ADS-B (WMSA / SZB)
03:33AM 2.9300 102.4550 181° South 309 356 21,600 -1,200 Descending FlightAware
03:34AM 2.9060 102.5020 117° Southeast 290 334 20,600 -1,620 Descending FlightAware
03:35AM 2.9300 102.5370 56° Northeast 294 338 19,600 -1,560 Descending FlightAware
03:35AM 2.9520 102.5420 13° North 296 341 19,300 -1,140 Descending FlightAware
03:35AM 2.9885 102.5241 334° Northwest 339 390 18,800 -1,320 Descending FlightAware ADS-B (WMSA / SZB)
03:36AM 2.9991 102.4899 287° West 296 341 18,100 -2,280 Descending FlightAware ADS-B (WMSA / SZB)
03:37AM 2.9190 102.3820 252° West 325 374 14,300 -2,340 Descending FlightAware
03:38AM 2.9414 102.3122 252° West  Level Estimated
03:38AM 2.8900 102.3480 230° Southwest 320 368 13,300  Level FlightAware
03:38AM 2.8560 102.3090 229° Southwest 303 349 12,600 -1,200 Descending FlightAware
03:40AM 2.8000 102.2430 230° Southwest 288 331 11,300 -1,080 Descending FlightAware
03:41AM 2.7250 102.1650 226° Southwest 264 304 9,900 -1,080 Descending FlightAware
03:41AM 2.7040 102.1470 221° Southwest 258 297 9,500 -720 Descending FlightAware
03:43AM 2.6740 102.1220 220° Southwest 253 291 8,600 -960 Descending FlightAware
03:43AM 2.6840 102.1300 39° Northeast 254 292 7,500 -1,800 Descending FlightAware
03:46AM 2.7174 101.9021 278° West  Level Estimated
03:47AM 2.7332 101.7944 278° West  Level Estimated
03:48AM 2.7456 101.7099 278° West  Level Estimated
03:49AM 2.7456 101.7099 236° Southwest  Level Estimated
03:50AM 2.7456 101.7099 236° Southwest  Level Estimated
03:51AM 2.7456 101.7099 236° Southwest  Level Estimated
03:52AM 2.7456 101.7099 236° Southwest  Level Estimated
03:53AM 2.7456 101.7099 236° Southwest  Level Estimated